Time;durP1;ratioP1;P1;durP2;ratioP2;P2;SDS_P1;SDS_P2;PMS_P1;PMS_P2;Temp;Humidity;BMP_temperature;BMP_pressure;BME280_temperature;BME280_humidity;BME280_pressure;Samples;Min_cycle;Max_cycle;Signal;HPM_P1;HPM_P2
2021/09/08 00:02:01;;;;;;;15.85;14.15;;;22.50;76.70;;;;;;4174011;28;20140;-60
2021/09/08 00:04:23;;;;;;;16.60;13.40;;;22.50;76.70;;;;;;4174739;28;20045;-60
2021/09/08 00:06:44;;;;;;;14.75;13.18;;;22.50;76.80;;;;;;4175111;28;20487;-60
2021/09/08 00:09:07;;;;;;;13.82;12.45;;;22.50;76.80;;;;;;4176630;28;20495;-60
2021/09/08 00:11:30;;;;;;;15.60;13.63;;;22.50;76.90;;;;;;4164769;28;20042;-60
2021/09/08 00:13:52;;;;;;;16.00;13.98;;;22.40;76.70;;;;;;4170750;28;20384;-60
2021/09/08 00:16:15;;;;;;;17.85;15.30;;;22.50;76.80;;;;;;4174997;28;20048;-60
2021/09/08 00:18:38;;;;;;;16.77;14.98;;;22.50;76.80;;;;;;4161329;28;20112;-60
2021/09/08 00:21:00;;;;;;;17.20;15.48;;;22.50;76.80;;;;;;4158593;28;20045;-60
2021/09/08 00:23:22;;;;;;;16.92;15.05;;;22.40;76.80;;;;;;4158592;28;20048;-60
2021/09/08 00:25:44;;;;;;;15.95;14.43;;;22.40;76.80;;;;;;4158470;28;20041;-60
2021/09/08 00:28:07;;;;;;;17.00;14.98;;;22.40;76.90;;;;;;4159611;28;20053;-60
2021/09/08 00:30:29;;;;;;;16.25;14.65;;;22.40;76.80;;;;;;4162933;28;20458;-60
2021/09/08 00:32:51;;;;;;;16.98;14.93;;;22.40;76.80;;;;;;4189883;28;20048;-61
2021/09/08 00:35:13;;;;;;;16.17;14.50;;;22.40;76.90;;;;;;4191218;28;20049;-61
2021/09/08 00:37:38;;;;;;;16.55;14.80;;;22.40;76.80;;;;;;4190775;28;20052;-60
2021/09/08 00:40:01;;;;;;;17.08;14.68;;;22.40;77.60;;;;;;4191331;28;20166;-60
2021/09/08 00:42:23;;;;;;;16.98;14.93;;;22.40;76.80;;;;;;4189866;28;20044;-60
2021/09/08 00:44:46;;;;;;;16.73;13.85;;;22.40;76.80;;;;;;4174687;28;20053;-60
2021/09/08 00:47:12;;;;;;;15.32;13.73;;;22.40;76.70;;;;;;4173790;28;20582;-60
2021/09/08 00:49:34;;;;;;;17.02;14.50;;;22.40;76.70;;;;;;4174148;28;20045;-60
2021/09/08 00:52:02;;;;;;;15.45;13.90;;;22.40;76.80;;;;;;4174417;28;20060;-60
2021/09/08 00:54:26;;;;;;;16.70;14.48;;;22.40;76.80;;;;;;4174365;28;20514;-61
2021/09/08 00:56:55;;;;;;;15.52;13.93;;;22.40;76.70;;;;;;4174209;28;20150;-60
2021/09/08 00:59:20;;;;;;;17.98;15.80;;;22.40;77.40;;;;;;4174739;28;20463;-61
2021/09/08 01:01:43;;;;;;;15.82;14.32;;;22.30;76.70;;;;;;4177054;28;20063;-60
2021/09/08 01:04:08;;;;;;;15.15;13.52;;;22.30;76.70;;;;;;4174203;28;20461;-58
2021/09/08 01:06:31;;;;;;;16.05;14.20;;;22.30;76.80;;;;;;4173368;28;20045;-60
2021/09/08 01:08:58;;;;;;;14.63;13.13;;;22.30;76.80;;;;;;4171014;28;20057;-60
2021/09/08 01:11:21;;;;;;;14.70;13.30;;;22.30;76.60;;;;;;4172605;28;20049;-60
2021/09/08 01:13:43;;;;;;;15.82;14.23;;;22.30;76.80;;;;;;4177907;28;20053;-61
2021/09/08 01:16:06;;;;;;;14.75;13.18;;;22.30;77.70;;;;;;4177963;28;20487;-60
2021/09/08 01:18:30;;;;;;;14.90;12.88;;;22.30;76.70;;;;;;4163130;28;20139;-60
2021/09/08 01:20:53;;;;;;;15.85;14.00;;;22.30;76.50;;;;;;4161131;28;20077;-62
2021/09/08 01:23:17;;;;;;;14.40;12.48;;;22.30;76.50;;;;;;4160782;28;20046;-61
2021/09/08 01:25:39;;;;;;;15.98;12.57;;;22.30;76.50;;;;;;4177175;28;20152;-60
2021/09/08 01:28:01;;;;;;;13.88;12.48;;;22.30;76.60;;;;;;4184610;28;20044;-60
2021/09/08 01:30:25;;;;;;;13.65;12.25;;;22.20;76.50;;;;;;4193857;28;20110;-61
2021/09/08 01:32:48;;;;;;;14.13;12.82;;;22.20;76.40;;;;;;4194122;28;20073;-60
2021/09/08 01:35:11;;;;;;;13.70;12.25;;;22.20;76.50;;;;;;4194003;28;20048;-61
2021/09/08 01:37:32;;;;;;;14.27;12.75;;;22.20;76.40;;;;;;4193903;28;20494;-61
2021/09/08 01:39:56;;;;;;;13.63;12.25;;;22.20;76.40;;;;;;4193421;28;20540;-61
2021/09/08 01:42:18;;;;;;;14.60;13.10;;;22.20;76.30;;;;;;4193968;28;20056;-59
2021/09/08 01:44:40;;;;;;;14.48;12.98;;;22.20;76.30;;;;;;4193779;28;20075;-60
2021/09/08 01:47:02;;;;;;;14.60;13.20;;;22.20;76.30;;;;;;4193532;28;20126;-61
2021/09/08 01:49:24;;;;;;;14.77;13.10;;;22.20;76.20;;;;;;4193687;28;20477;-61
2021/09/08 01:51:47;;;;;;;18.65;14.23;;;22.20;76.20;;;;;;4178351;28;20052;-60
2021/09/08 01:54:09;;;;;;;15.70;14.07;;;22.20;76.20;;;;;;4177251;28;20554;-61
2021/09/08 01:56:32;;;;;;;15.63;14.13;;;22.20;76.20;;;;;;4178521;28;20033;-60
2021/09/08 01:58:55;;;;;;;16.35;14.63;;;22.10;76.20;;;;;;4184205;28;20057;-61
2021/09/08 02:01:17;;;;;;;16.20;13.82;;;22.10;76.30;;;;;;4189593;28;20055;-60
2021/09/08 02:03:40;;;;;;;15.43;13.77;;;22.10;76.30;;;;;;4192816;28;20641;-61
2021/09/08 02:06:17;;;;;;;15.65;13.20;;;22.10;76.30;;;;;;4193787;28;20080;-60
2021/09/08 02:08:39;;;;;;;14.98;13.40;;;22.10;75.90;;;;;;4176798;28;20052;-60
2021/09/08 02:11:02;;;;;;;15.02;13.40;;;22.10;76.40;;;;;;4176402;28;20147;-60
2021/09/08 02:13:26;;;;;;;15.75;14.07;;;22.10;76.20;;;;;;4176811;28;20126;-61
2021/09/08 02:15:48;;;;;;;15.82;14.23;;;22.10;76.20;;;;;;4177006;28;20049;-60
2021/09/08 02:18:10;;;;;;;17.00;14.10;;;22.10;76.30;;;;;;4176889;28;20068;-61
2021/09/08 02:20:32;;;;;;;15.40;13.80;;;22.10;76.30;;;;;;4176434;28;20478;-60
2021/09/08 02:22:54;;;;;;;15.98;14.38;;;22.10;76.30;;;;;;4176026;28;20099;-61
2021/09/08 02:25:16;;;;;;;16.33;13.60;;;22.00;76.20;;;;;;4161615;28;20483;-60
2021/09/08 02:27:38;;;;;;;17.02;14.45;;;22.00;76.10;;;;;;4176846;28;20064;-59
2021/09/08 02:30:02;;;;;;;15.70;14.07;;;22.00;76.10;;;;;;4176598;28;20317;-60
2021/09/08 02:32:24;;;;;;;18.75;14.57;;;22.00;76.10;;;;;;4176595;28;20053;-61
2021/09/08 02:34:46;;;;;;;14.93;13.48;;;22.00;76.20;;;;;;4171957;28;20542;-61
2021/09/08 02:37:08;;;;;;;16.08;14.40;;;22.00;76.20;;;;;;4160152;28;20119;-61
2021/09/08 02:39:31;;;;;;;16.10;13.60;;;22.00;76.20;;;;;;4166650;28;20060;-60
2021/09/08 02:41:53;;;;;;;17.92;15.20;;;22.00;76.20;;;;;;4193091;28;20064;-61
2021/09/08 02:44:17;;;;;;;15.73;14.07;;;22.00;76.10;;;;;;4193060;28;20540;-60
2021/09/08 02:46:41;;;;;;;15.82;14.23;;;22.00;76.20;;;;;;4175801;28;20575;-60
2021/09/08 02:49:03;;;;;;;15.70;14.20;;;22.00;75.90;;;;;;4176402;28;20161;-61
2021/09/08 02:51:26;;;;;;;15.40;13.80;;;22.00;76.10;;;;;;4176493;28;20491;-61
2021/09/08 02:53:48;;;;;;;16.30;14.68;;;22.00;76.20;;;;;;4176278;28;20458;-61
2021/09/08 02:56:10;;;;;;;16.13;14.52;;;22.00;76.10;;;;;;4176343;28;20041;-61
2021/09/08 02:58:32;;;;;;;17.92;15.63;;;21.90;76.10;;;;;;4172178;28;20038;-61
2021/09/08 03:00:54;;;;;;;17.40;15.60;;;21.90;76.00;;;;;;4188470;28;20052;-61
2021/09/08 03:03:18;;;;;;;16.05;14.48;;;21.90;76.10;;;;;;4187859;28;20107;-60
2021/09/08 03:05:41;;;;;;;16.92;15.23;;;21.90;76.00;;;;;;4175893;28;20053;-60
2021/09/08 03:08:04;;;;;;;16.80;14.70;;;21.90;76.20;;;;;;4175995;28;20111;-61
2021/09/08 03:10:26;;;;;;;16.02;14.20;;;21.90;76.10;;;;;;4174417;28;20057;-59
2021/09/08 03:12:48;;;;;;;15.93;14.23;;;21.90;76.10;;;;;;4159512;28;20053;-61
2021/09/08 03:15:11;;;;;;;16.17;14.55;;;21.90;76.10;;;;;;4159185;28;20136;-61
2021/09/08 03:17:33;;;;;;;16.80;15.10;;;21.90;76.10;;;;;;4175758;28;20043;-60
2021/09/08 03:19:56;;;;;;;17.15;15.38;;;21.90;76.10;;;;;;4190221;28;20131;-60
2021/09/08 03:22:18;;;;;;;17.05;15.23;;;21.90;76.00;;;;;;4175669;28;20448;-60
2021/09/08 03:24:40;;;;;;;17.10;15.30;;;21.90;77.00;;;;;;4178923;28;20036;-61
2021/09/08 03:27:02;;;;;;;17.45;15.40;;;21.90;76.10;;;;;;4191921;28;20045;-60
2021/09/08 03:29:24;;;;;;;15.80;14.18;;;21.80;76.00;;;;;;4191325;28;20056;-60
2021/09/08 03:31:46;;;;;;;16.10;14.43;;;21.80;76.10;;;;;;4191275;28;20507;-60
2021/09/08 03:34:09;;;;;;;17.10;15.40;;;21.80;76.10;;;;;;4191454;28;20044;-60
2021/09/08 03:36:32;;;;;;;14.68;13.20;;;21.80;76.00;;;;;;4173874;28;20049;-60
2021/09/08 03:38:54;;;;;;;16.90;15.25;;;21.80;76.00;;;;;;4183565;28;20052;-59
2021/09/08 03:41:16;;;;;;;18.20;14.95;;;21.80;76.00;;;;;;4190165;28;20127;-60
2021/09/08 03:43:38;;;;;;;15.95;13.98;;;21.80;76.10;;;;;;4178163;28;20051;-59
2021/09/08 03:46:04;;;;;;;15.63;13.82;;;21.80;76.10;;;;;;4175630;28;20131;-59
2021/09/08 03:48:26;;;;;;;16.05;14.38;;;21.80;75.90;;;;;;4175245;28;20048;-61
2021/09/08 03:50:48;;;;;;;15.65;13.98;;;21.80;76.00;;;;;;4175152;28;20414;-60
2021/09/08 03:53:11;;;;;;;15.05;13.48;;;21.80;76.00;;;;;;4183112;28;20055;-60
2021/09/08 03:55:33;;;;;;;14.77;13.25;;;21.80;75.90;;;;;;4191451;28;20501;-61
2021/09/08 03:57:55;;;;;;;14.13;12.77;;;21.80;76.00;;;;;;4191494;28;20078;-59
2021/09/08 04:00:18;;;;;;;14.57;13.15;;;21.80;76.20;;;;;;4191719;28;20405;-60
2021/09/08 04:02:40;;;;;;;15.98;14.00;;;21.80;76.00;;;;;;4191050;28;20088;-60
2021/09/08 04:05:03;;;;;;;15.82;14.27;;;21.70;76.00;;;;;;4190936;28;20044;-60
2021/09/08 04:07:26;;;;;;;16.83;14.88;;;21.70;76.00;;;;;;4191693;28;20060;-61
2021/09/08 04:09:50;;;;;;;15.18;13.70;;;21.70;76.20;;;;;;4191477;28;20048;-61
2021/09/08 04:12:12;;;;;;;15.00;13.43;;;21.70;76.10;;;;;;4188126;28;20483;-61
2021/09/08 04:14:34;;;;;;;15.90;13.30;;;21.70;76.50;;;;;;4174746;28;20071;-61
2021/09/08 04:16:56;;;;;;;15.57;14.05;;;21.70;76.90;;;;;;4174642;28;20124;-61
2021/09/08 04:19:20;;;;;;;15.10;13.60;;;21.70;76.90;;;;;;4190932;28;20052;-61
2021/09/08 04:21:42;;;;;;;16.38;13.75;;;21.70;77.00;;;;;;4189902;28;20056;-61
2021/09/08 04:24:05;;;;;;;15.82;14.23;;;21.70;77.00;;;;;;4174811;28;20459;-62
2021/09/08 04:26:28;;;;;;;16.80;14.07;;;21.70;77.00;;;;;;4173395;28;20049;-61
2021/09/08 04:28:50;;;;;;;15.80;14.13;;;21.70;76.80;;;;;;4174721;28;20053;-61
2021/09/08 04:31:13;;;;;;;15.52;14.02;;;21.70;77.10;;;;;;4174733;28;20099;-61
2021/09/08 04:33:35;;;;;;;16.27;14.18;;;21.70;77.00;;;;;;4175753;28;20573;-62
2021/09/08 04:35:57;;;;;;;15.02;13.50;;;21.70;77.00;;;;;;4190713;28;20462;-61
2021/09/08 04:38:22;;;;;;;16.75;14.98;;;21.70;77.20;;;;;;4191418;28;20356;-62
2021/09/08 04:40:45;;;;;;;15.40;13.82;;;21.70;77.10;;;;;;4190918;28;20059;-61
2021/09/08 04:43:08;;;;;;;16.58;14.98;;;21.70;78.10;;;;;;4190972;28;20036;-61
2021/09/08 04:45:30;;;;;;;18.25;14.68;;;21.70;77.10;;;;;;4190653;28;20076;-61
2021/09/08 04:47:52;;;;;;;16.48;14.52;;;21.70;77.10;;;;;;4190436;28;20054;-61
2021/09/08 04:50:15;;;;;;;16.48;14.77;;;21.70;76.80;;;;;;4191535;28;20052;-61
2021/09/08 04:52:37;;;;;;;16.67;14.98;;;21.70;77.00;;;;;;4191157;28;20044;-61
2021/09/08 04:55:00;;;;;;;15.80;14.10;;;21.60;77.00;;;;;;4190998;28;20131;-61
2021/09/08 04:57:22;;;;;;;15.13;13.57;;;21.70;77.30;;;;;;4190084;28;20098;-61
2021/09/08 04:59:46;;;;;;;17.63;15.77;;;21.60;77.40;;;;;;4191271;28;20048;-61
2021/09/08 05:02:08;;;;;;;16.00;14.43;;;21.60;77.20;;;;;;4191188;28;20068;-61
2021/09/08 05:04:30;;;;;;;16.90;15.30;;;21.70;77.30;;;;;;4191028;28;20496;-61
2021/09/08 05:06:52;;;;;;;17.60;15.90;;;21.60;77.30;;;;;;4191115;28;20056;-61
2021/09/08 05:09:14;;;;;;;16.92;15.18;;;21.60;77.30;;;;;;4180884;28;20053;-62
2021/09/08 05:11:36;;;;;;;17.42;15.60;;;21.60;77.20;;;;;;4174421;28;20140;-62
2021/09/08 05:13:59;;;;;;;21.13;15.50;;;21.60;77.10;;;;;;4174605;28;20045;-60
2021/09/08 05:16:23;;;;;;;16.58;14.68;;;21.60;77.20;;;;;;4174445;28;20520;-62
2021/09/08 05:18:45;;;;;;;17.27;15.52;;;21.60;77.10;;;;;;4173451;28;20052;-61
2021/09/08 05:21:08;;;;;;;17.67;15.82;;;21.60;77.30;;;;;;4183434;28;20055;-61
2021/09/08 05:23:30;;;;;;;16.30;14.60;;;21.60;77.30;;;;;;4190789;28;20048;-61
2021/09/08 05:25:52;;;;;;;17.10;15.30;;;21.60;77.40;;;;;;4190913;28;20060;-61
2021/09/08 05:28:14;;;;;;;18.05;15.73;;;21.60;77.30;;;;;;4189911;28;20453;-61
2021/09/08 05:30:37;;;;;;;17.25;15.45;;;21.60;77.40;;;;;;4190146;28;20090;-61
2021/09/08 05:33:00;;;;;;;17.63;15.80;;;21.60;77.40;;;;;;4190581;28;20048;-61
2021/09/08 05:35:22;;;;;;;19.65;16.05;;;21.60;77.40;;;;;;4190763;28;20427;-61
2021/09/08 05:37:44;;;;;;;15.57;14.15;;;21.50;77.50;;;;;;4190549;28;20049;-59
2021/09/08 05:40:10;;;;;;;18.27;16.50;;;21.60;77.70;;;;;;4176385;28;20053;-63
2021/09/08 05:42:33;;;;;;;17.75;15.10;;;21.50;77.80;;;;;;4160367;28;20049;-61
2021/09/08 05:44:55;;;;;;;17.80;15.65;;;21.60;77.90;;;;;;4167987;28;20607;-61
2021/09/08 05:47:18;;;;;;;16.73;15.13;;;21.60;77.90;;;;;;4173565;28;20044;-61
2021/09/08 05:49:42;;;;;;;18.02;15.80;;;21.50;78.00;;;;;;4173686;28;20071;-60
2021/09/08 05:52:04;;;;;;;23.88;14.98;;;21.50;78.20;;;;;;4173905;28;20068;-59
2021/09/08 05:54:27;;;;;;;17.20;15.38;;;21.50;78.60;;;;;;4174151;28;20048;-61
2021/09/08 05:56:49;;;;;;;18.90;16.95;;;21.60;78.40;;;;;;4173652;28;20388;-61
2021/09/08 05:59:11;;;;;;;17.80;15.90;;;21.60;77.80;;;;;;4166306;28;20061;-59
2021/09/08 06:01:33;;;;;;;17.42;15.48;;;21.60;78.20;;;;;;4166332;28;20488;-59
2021/09/08 06:03:56;;;;;;;17.60;15.80;;;21.50;77.80;;;;;;4173956;28;20059;-59
2021/09/08 06:06:23;;;;;;;17.90;15.98;;;21.50;77.60;;;;;;4182305;28;20071;-58
2021/09/08 06:08:54;;;;;;;18.02;16.13;;;21.50;77.20;;;;;;4153388;28;20122;-59
2021/09/08 06:11:50;;;;;;;;;;;;;;;;;;;;;
2021/09/08 06:14:39;;;;;;;19.30;16.33;;;21.50;77.40;;;;;;4150248;28;20485;-59
2021/09/08 06:17:20;;;;;;;17.02;15.30;;;21.50;77.50;;;;;;4145570;28;20041;-59
2021/09/08 06:19:57;;;;;;;17.33;15.63;;;21.50;77.60;;;;;;4151586;28;20052;-59
2021/09/08 06:26:29;;;;;;;22.15;15.60;;;21.50;77.70;;;;;;4101167;28;20062;-60
2021/09/08 06:29:11;;;;;;;16.30;14.77;;;21.40;77.90;;;;;;4138128;28;20388;-58
2021/09/08 06:31:45;;;;;;;17.42;15.57;;;21.40;77.90;;;;;;4142582;28;20078;-60
2021/09/08 06:34:46;;;;;;;18.17;16.38;;;21.40;77.80;;;;;;4150874;28;20057;-59
2021/09/08 06:37:31;;;;;;;18.77;16.25;;;21.40;77.50;;;;;;4122092;28;20068;-60
2021/09/08 06:40:39;;;;;;;19.15;15.75;;;21.40;77.80;;;;;;4157687;28;20091;-60
2021/09/08 06:43:33;;;;;;;20.73;17.13;;;21.40;77.40;;;;;;4127780;28;20052;-59
2021/09/08 06:46:09;;;;;;;19.20;16.83;;;21.40;77.80;;;;;;4103564;28;20045;-60
2021/09/08 06:49:02;;;;;;;;;;;;;;;;;;;;;
2021/09/08 06:51:59;;;;;;;18.83;16.45;;;21.40;77.70;;;;;;4136059;28;20504;-61
2021/09/08 06:54:38;;;;;;;19.45;16.70;;;21.40;78.20;;;;;;4135515;28;20056;-62
2021/09/08 06:57:12;;;;;;;19.60;16.85;;;21.40;78.30;;;;;;4155635;28;20459;-61
2021/09/08 06:59:36;;;;;;;18.10;16.30;;;21.40;78.20;;;;;;4162924;28;20224;-61
2021/09/08 07:01:59;;;;;;;17.65;15.85;;;21.40;79.10;;;;;;4166888;28;20156;-61
2021/09/08 07:04:22;;;;;;;18.90;16.67;;;21.40;78.40;;;;;;4165556;28;20749;-59
2021/09/08 07:06:44;;;;;;;18.75;16.80;;;21.40;78.40;;;;;;4167020;28;20052;-61
2021/09/08 07:09:09;;;;;;;19.63;17.63;;;21.40;78.60;;;;;;4166870;28;20136;-61
2021/09/08 07:11:31;;;;;;;18.83;17.02;;;21.40;78.60;;;;;;4188286;28;20056;-61
2021/09/08 07:13:54;;;;;;;18.85;15.70;;;21.40;78.60;;;;;;4168940;28;20111;-61
2021/09/08 07:16:16;;;;;;;20.30;16.67;;;21.40;78.20;;;;;;4175366;28;20041;-61
2021/09/08 07:18:39;;;;;;;16.95;15.20;;;21.40;78.50;;;;;;4169806;28;20088;-60
2021/09/08 07:21:14;;;;;;;16.67;14.95;;;21.40;78.50;;;;;;4150666;28;20053;-57
2021/09/08 07:24:11;;;;;;;16.70;14.57;;;21.50;78.80;;;;;;4115843;28;20049;-60
2021/09/08 07:26:43;;;;;;;16.45;14.65;;;21.60;78.80;;;;;;4116114;28;20053;-60
2021/09/08 07:29:20;;;;;;;15.80;14.20;;;21.60;78.70;;;;;;4138093;28;20050;-60
2021/09/08 07:32:08;;;;;;;15.90;14.40;;;21.60;78.60;;;;;;4127262;28;20052;-60
2021/09/08 07:35:12;;;;;;;15.15;13.68;;;21.70;78.70;;;;;;4106357;28;20044;-61
2021/09/08 07:37:53;;;;;;;16.92;14.57;;;21.80;78.50;;;;;;4129142;28;20048;-60
2021/09/08 07:40:51;;;;;;;16.75;15.02;;;21.80;78.30;;;;;;4144203;28;20446;-60
2021/09/08 07:43:21;;;;;;;15.75;14.15;;;21.90;78.20;;;;;;4169971;28;20059;-61
2021/09/08 07:45:45;;;;;;;15.52;14.02;;;21.90;78.30;;;;;;4164139;28;20053;-60
2021/09/08 07:48:07;;;;;;;16.17;14.00;;;22.00;78.40;;;;;;4165721;28;20053;-60
2021/09/08 07:50:29;;;;;;;15.73;14.13;;;22.00;78.20;;;;;;4166011;28;20490;-60
2021/09/08 07:52:52;;;;;;;15.05;13.55;;;22.00;77.80;;;;;;4167691;28;20083;-62
2021/09/08 07:55:14;;;;;;;15.88;14.20;;;22.10;77.50;;;;;;4184517;28;20040;-59
2021/09/08 07:57:36;;;;;;;15.32;13.48;;;22.10;77.00;;;;;;4180904;28;20052;-59
2021/09/08 07:59:59;;;;;;;15.18;12.77;;;22.20;76.60;;;;;;4171339;28;20486;-59
2021/09/08 08:02:23;;;;;;;15.50;14.00;;;22.20;76.60;;;;;;4188299;28;20095;-59
2021/09/08 08:04:45;;;;;;;14.20;12.77;;;22.20;76.50;;;;;;4172904;28;20511;-59
2021/09/08 08:07:07;;;;;;;17.35;12.90;;;22.30;76.80;;;;;;4164956;28;20056;-60
2021/09/08 08:09:29;;;;;;;13.68;12.27;;;22.30;76.80;;;;;;4180218;28;20057;-60
2021/09/08 08:11:51;;;;;;;13.02;11.70;;;22.30;76.90;;;;;;4181755;28;20052;-59
2021/09/08 08:14:16;;;;;;;14.93;13.18;;;22.40;77.00;;;;;;4181812;28;20048;-59
2021/09/08 08:16:38;;;;;;;12.82;11.60;;;22.40;77.20;;;;;;4182030;28;20132;-60
2021/09/08 08:19:02;;;;;;;12.95;11.60;;;22.50;77.20;;;;;;4187237;28;20156;-59
2021/09/08 08:21:24;;;;;;;13.23;11.93;;;22.50;77.00;;;;;;4180149;28;20045;-60
2021/09/08 08:23:46;;;;;;;11.68;10.57;;;22.50;77.00;;;;;;4181618;28;20391;-60
2021/09/08 08:26:08;;;;;;;12.40;11.30;;;22.50;76.50;;;;;;4181903;28;20041;-60
2021/09/08 08:28:31;;;;;;;11.77;10.55;;;22.60;76.00;;;;;;4176676;28;20044;-60
2021/09/08 08:30:54;;;;;;;10.90;9.88;;;22.60;75.90;;;;;;4190346;28;20928;-59
2021/09/08 08:33:16;;;;;;;11.60;9.80;;;22.60;75.70;;;;;;4179387;28;20060;-59
2021/09/08 08:35:40;;;;;;;13.95;9.90;;;22.60;75.60;;;;;;4165669;28;20466;-60
2021/09/08 08:38:02;;;;;;;10.63;9.63;;;22.60;75.10;;;;;;4164667;28;20081;-60
2021/09/08 08:40:24;;;;;;;11.43;10.40;;;22.70;75.00;;;;;;4165509;28;20057;-60
2021/09/08 08:42:47;;;;;;;10.55;9.25;;;22.70;74.90;;;;;;4186145;28;20041;-60
2021/09/08 08:45:10;;;;;;;11.15;9.35;;;22.70;74.80;;;;;;4171144;28;20349;-59
2021/09/08 08:47:33;;;;;;;10.27;9.30;;;22.80;74.80;;;;;;4184769;28;20083;-61
2021/09/08 08:49:55;;;;;;;10.88;9.70;;;22.80;74.20;;;;;;4182492;28;20829;-60
2021/09/08 08:52:19;;;;;;;11.18;9.57;;;22.80;74.10;;;;;;4181346;28;20487;-59
2021/09/08 08:54:41;;;;;;;16.17;10.18;;;22.90;74.20;;;;;;4185685;28;20470;-60
2021/09/08 08:57:04;;;;;;;10.85;9.55;;;22.90;74.10;;;;;;4173373;28;20602;-60
2021/09/08 08:59:26;;;;;;;10.07;9.18;;;22.90;74.10;;;;;;4163547;28;20045;-60
2021/09/08 09:01:48;;;;;;;10.93;9.75;;;23.00;74.20;;;;;;4164215;28;20056;-61
2021/09/08 09:04:13;;;;;;;10.90;9.55;;;23.00;73.60;;;;;;4165444;28;20049;-61
2021/09/08 09:06:39;;;;;;;12.68;9.43;;;23.00;74.30;;;;;;4185775;28;20063;-61
2021/09/08 09:09:06;;;;;;;10.27;9.32;;;23.00;73.20;;;;;;4182993;28;20140;-60
2021/09/08 09:11:28;;;;;;;9.95;9.10;;;23.00;72.90;;;;;;4170036;28;20049;-61
2021/09/08 09:13:51;;;;;;;10.75;9.65;;;23.10;72.60;;;;;;4181502;28;20057;-60
2021/09/08 09:16:13;;;;;;;11.00;9.07;;;23.10;72.80;;;;;;4179826;28;20052;-61
2021/09/08 09:18:40;;;;;;;9.95;8.30;;;23.10;72.30;;;;;;4162000;28;20045;-61
2021/09/08 09:21:09;;;;;;;10.32;9.32;;;23.10;71.10;;;;;;4165305;28;20049;-60
2021/09/08 09:23:42;;;;;;;9.90;8.82;;;23.20;71.00;;;;;;4165678;28;20131;-61
2021/09/08 09:26:07;;;;;;;9.60;8.20;;;23.30;70.60;;;;;;4168893;28;20045;-61
2021/09/08 09:28:30;;;;;;;10.05;9.05;;;23.30;70.60;;;;;;4177638;28;20057;-60
2021/09/08 09:30:52;;;;;;;12.27;9.43;;;23.30;70.70;;;;;;4184947;28;20056;-61
2021/09/08 09:33:29;;;;;;;8.75;7.95;;;23.30;69.60;;;;;;4180121;28;20402;-61
2021/09/08 09:35:51;;;;;;;9.30;8.35;;;23.40;70.30;;;;;;4184050;28;20059;-61
2021/09/08 09:38:13;;;;;;;9.93;9.00;;;23.40;70.00;;;;;;4184447;28;20132;-61
2021/09/08 09:40:38;;;;;;;9.52;8.63;;;23.40;69.90;;;;;;4184423;28;20052;-60
2021/09/08 09:43:06;;;;;;;9.93;8.25;;;23.40;70.30;;;;;;4184754;28;20056;-60
2021/09/08 09:45:33;;;;;;;9.07;8.23;;;23.40;70.60;;;;;;4187103;28;20698;-61
2021/09/08 09:48:00;;;;;;;12.35;8.63;;;23.40;70.60;;;;;;4184346;28;20064;-61
2021/09/08 09:50:23;;;;;;;10.30;9.27;;;23.50;69.80;;;;;;4183147;28;20045;-59
2021/09/08 09:52:46;;;;;;;10.23;9.32;;;23.50;69.30;;;;;;4184380;28;20072;-60
2021/09/08 09:55:08;;;;;;;12.20;8.75;;;23.60;69.50;;;;;;4167598;28;20053;-61
2021/09/08 09:57:31;;;;;;;10.18;8.60;;;23.60;70.50;;;;;;4186748;28;20165;-61
2021/09/08 09:59:55;;;;;;;10.10;7.78;;;23.60;69.80;;;;;;4182467;28;20059;-60
2021/09/08 10:02:17;;;;;;;8.05;7.35;;;23.60;68.30;;;;;;4176796;28;20117;-61
2021/09/08 10:04:39;;;;;;;8.07;7.38;;;23.70;69.80;;;;;;4163742;28;20128;-61
2021/09/08 10:07:06;;;;;;;7.95;6.90;;;23.70;70.20;;;;;;4167631;28;20135;-61
2021/09/08 10:09:30;;;;;;;8.48;7.70;;;23.70;70.10;;;;;;4167272;28;20048;-61
2021/09/08 10:11:53;;;;;;;7.88;7.18;;;23.70;69.30;;;;;;4181237;28;20102;-61
2021/09/08 10:14:21;;;;;;;9.02;7.30;;;23.80;69.30;;;;;;4183004;28;20064;-59
2021/09/08 10:16:49;;;;;;;7.45;6.68;;;23.80;67.30;;;;;;4163659;28;20080;-60
2021/09/08 10:19:11;;;;;;;6.25;5.65;;;23.80;67.80;;;;;;4167181;28;20132;-60
2021/09/08 10:21:36;;;;;;;7.88;5.80;;;23.80;68.10;;;;;;4167657;28;20140;-60
2021/09/08 10:24:01;;;;;;;7.60;6.68;;;23.90;68.10;;;;;;4179960;28;20052;-60
2021/09/08 10:26:28;;;;;;;8.27;6.72;;;23.90;68.10;;;;;;4186543;28;20052;-58
2021/09/08 10:28:50;;;;;;;7.40;6.78;;;23.90;67.90;;;;;;4185878;28;20554;-59
2021/09/08 10:31:15;;;;;;;9.77;7.38;;;24.00;67.70;;;;;;4183973;28;20518;-60
2021/09/08 10:33:40;;;;;;;8.02;7.30;;;24.00;68.00;;;;;;4191220;28;20837;-60
2021/09/08 10:36:03;;;;;;;8.13;7.53;;;24.00;67.80;;;;;;4184123;28;20053;-59
2021/09/08 10:38:27;;;;;;;8.35;7.35;;;24.10;67.10;;;;;;4168497;28;20102;-58
2021/09/08 10:40:49;;;;;;;8.13;7.35;;;24.10;66.10;;;;;;4167232;28;20049;-57
2021/09/08 10:43:11;;;;;;;8.32;7.63;;;24.10;67.70;;;;;;4166769;28;20045;-59
2021/09/08 10:45:34;;;;;;;10.05;7.65;;;24.10;67.80;;;;;;4183833;28;20052;-59
2021/09/08 10:47:58;;;;;;;8.20;7.25;;;24.20;67.70;;;;;;4183421;28;20135;-59
2021/09/08 10:50:42;;;;;;;8.38;7.68;;;24.20;67.10;;;;;;4186120;28;20052;-59
2021/09/08 10:53:30;;;;;;;8.30;7.50;;;24.20;66.80;;;;;;4191016;28;20076;-60
2021/09/08 10:55:53;;;;;;;7.40;6.80;;;24.30;67.30;;;;;;4183312;28;20048;-58
2021/09/08 10:58:16;;;;;;;9.45;8.00;;;24.30;66.90;;;;;;4186008;28;20044;-59
2021/09/08 11:00:40;;;;;;;9.10;7.60;;;24.30;66.90;;;;;;4180159;28;20822;-58
2021/09/08 11:03:08;;;;;;;6.57;5.88;;;24.30;66.20;;;;;;4190415;28;20056;-59
2021/09/08 11:05:30;;;;;;;6.47;5.88;;;24.30;66.70;;;;;;4180465;28;20056;-59
2021/09/08 11:07:54;;;;;;;5.95;5.40;;;24.40;66.00;;;;;;4171035;28;20071;-60
2021/09/08 11:10:26;;;;;;;7.75;5.82;;;24.40;66.00;;;;;;4169378;28;20110;-60
2021/09/08 11:12:50;;;;;;;6.30;5.72;;;24.40;65.50;;;;;;4187366;28;20550;-59
2021/09/08 11:15:13;;;;;;;7.15;6.15;;;24.50;66.00;;;;;;4172621;28;20080;-59
2021/09/08 11:17:35;;;;;;;5.93;5.30;;;24.50;65.60;;;;;;4191274;28;20567;-59
2021/09/08 11:20:09;;;;;;;6.07;5.47;;;24.50;65.90;;;;;;4190570;28;20047;-60
2021/09/08 11:22:32;;;;;;;5.70;4.82;;;24.50;66.30;;;;;;4189003;28;20051;-59
2021/09/08 11:25:04;;;;;;;5.05;4.25;;;24.50;66.00;;;;;;4182813;28;20644;-59
2021/09/08 11:27:29;;;;;;;6.88;5.53;;;24.60;65.60;;;;;;4184172;28;20106;-59
2021/09/08 11:30:02;;;;;;;5.50;4.78;;;24.60;66.20;;;;;;4185590;28;20052;-59
2021/09/08 11:32:25;;;;;;;6.13;5.28;;;24.60;65.30;;;;;;4169245;28;20049;-59
2021/09/08 11:34:48;;;;;;;5.10;4.70;;;24.60;65.20;;;;;;4166428;28;20132;-60
2021/09/08 11:37:11;;;;;;;5.88;5.35;;;24.70;65.60;;;;;;4165968;28;20074;-60
2021/09/08 11:39:33;;;;;;;5.35;4.80;;;24.70;64.80;;;;;;4185772;28;20044;-60
2021/09/08 11:41:59;;;;;;;5.93;4.90;;;24.70;63.90;;;;;;4182967;28;20055;-60
2021/09/08 11:44:21;;;;;;;4.97;4.50;;;24.70;64.80;;;;;;4182705;28;20049;-59
2021/09/08 11:46:43;;;;;;;4.53;4.13;;;24.80;65.00;;;;;;4182543;28;20049;-60
2021/09/08 11:49:08;;;;;;;5.35;4.82;;;24.80;64.50;;;;;;4189791;28;20041;-59
2021/09/08 11:51:33;;;;;;;4.78;4.38;;;24.80;63.80;;;;;;4189248;28;20486;-57
2021/09/08 11:53:56;;;;;;;4.97;4.57;;;24.80;64.70;;;;;;4164700;28;20064;-60
2021/09/08 11:56:20;;;;;;;5.72;4.57;;;24.90;64.10;;;;;;4162952;28;20045;-60
2021/09/08 11:58:49;;;;;;;5.20;4.80;;;24.90;64.20;;;;;;4162720;28;20503;-60
2021/09/08 12:01:12;;;;;;;4.55;4.25;;;24.90;64.20;;;;;;4169083;28;20036;-60
2021/09/08 12:03:38;;;;;;;5.35;4.30;;;24.90;64.40;;;;;;4182665;28;20483;-60
2021/09/08 12:06:15;;;;;;;6.32;4.78;;;24.90;63.40;;;;;;4182186;28;20052;-59
2021/09/08 12:08:38;;;;;;;4.20;3.80;;;25.00;63.40;;;;;;4181611;28;20045;-59
2021/09/08 12:11:00;;;;;;;5.47;3.72;;;25.00;62.90;;;;;;4169748;28;20045;-59
2021/09/08 12:13:30;;;;;;;4.20;3.90;;;25.00;63.30;;;;;;4179893;28;20055;-59
2021/09/08 12:15:53;;;;;;;4.72;4.28;;;25.00;63.10;;;;;;4186084;28;20438;-60
2021/09/08 12:18:17;;;;;;;4.40;4.00;;;25.00;62.50;;;;;;4176911;28;20049;-59
2021/09/08 12:20:39;;;;;;;5.00;4.40;;;25.00;63.30;;;;;;4165742;28;20550;-59
2021/09/08 12:23:04;;;;;;;6.47;4.00;;;25.00;62.80;;;;;;4165998;28;20501;-60
2021/09/08 12:25:26;;;;;;;4.97;4.47;;;25.10;62.70;;;;;;4165595;28;20138;-60
2021/09/08 12:27:49;;;;;;;4.15;3.85;;;25.10;61.80;;;;;;4161727;28;20458;-60
2021/09/08 12:30:23;;;;;;;4.82;4.43;;;25.10;62.30;;;;;;4181339;28;20041;-59